Time;durP1;ratioP1;P1;durP2;ratioP2;P2;SDS_P1;SDS_P2;PMS_P1;PMS_P2;Temp;Humidity;BMP_temperature;BMP_pressure;BME280_temperature;BME280_humidity;BME280_pressure;Samples;Min_cycle;Max_cycle;Signal;HPM_P1;HPM_P2
2022/01/02 00:02:10;;;;;;;9.95;3.92;;;13.90;78.70;;;;;;5056589;28;20066;-75
2022/01/02 00:04:36;;;;;;;9.48;3.78;;;13.90;78.70;;;;;;5056661;28;20042;-76
2022/01/02 00:07:05;;;;;;;6.97;3.67;;;13.90;78.80;;;;;;5056935;28;20029;-76
2022/01/02 00:09:36;;;;;;;7.93;3.75;;;13.90;78.80;;;;;;5074492;28;20356;-76
2022/01/02 00:12:17;;;;;;;9.15;3.30;;;13.90;78.80;;;;;;5057175;28;20059;-75
2022/01/02 00:14:47;;;;;;;8.32;3.55;;;13.90;78.80;;;;;;5057244;28;20025;-75
2022/01/02 00:17:16;;;;;;;7.82;3.42;;;13.90;78.80;;;;;;5074070;28;20495;-76
2022/01/02 00:19:51;;;;;;;7.40;3.67;;;13.90;78.90;;;;;;5074576;28;20043;-76
2022/01/02 00:22:18;;;;;;;8.30;3.90;;;13.90;78.90;;;;;;5073501;28;20033;-75
2022/01/02 00:24:45;;;;;;;8.80;4.13;;;13.90;78.90;;;;;;5073698;28;20036;-76
2022/01/02 00:27:14;;;;;;;8.43;3.40;;;13.90;78.80;;;;;;5073203;28;20398;-76
2022/01/02 00:29:41;;;;;;;7.40;3.10;;;13.90;78.80;;;;;;5073659;28;20384;-76
2022/01/02 00:32:09;;;;;;;7.72;3.53;;;13.90;78.70;;;;;;5073569;28;20330;-76
2022/01/02 00:34:37;;;;;;;7.93;3.25;;;13.90;78.60;;;;;;5057030;28;20032;-76
2022/01/02 00:37:05;;;;;;;6.93;2.80;;;13.90;78.60;;;;;;5073695;28;20039;-76
2022/01/02 00:39:30;;;;;;;9.52;3.30;;;13.90;79.20;;;;;;5073835;28;20089;-76
2022/01/02 00:42:07;;;;;;;9.88;4.22;;;13.90;78.40;;;;;;5056724;28;20445;-76
2022/01/02 00:44:44;;;;;;;7.32;3.70;;;13.90;78.30;;;;;;5074433;28;20032;-76
2022/01/02 00:47:21;;;;;;;6.38;3.03;;;13.90;78.30;;;;;;5077686;28;20441;-76
2022/01/02 00:50:09;;;;;;;7.80;2.88;;;13.90;78.10;;;;;;5077582;28;20082;-76
2022/01/02 00:52:38;;;;;;;8.98;3.35;;;13.90;77.90;;;;;;5078367;28;20029;-76
2022/01/02 00:55:07;;;;;;;7.00;2.92;;;13.90;78.00;;;;;;5077049;28;20020;-76
2022/01/02 00:57:42;;;;;;;8.25;3.40;;;13.90;78.00;;;;;;5076800;28;20052;-75
2022/01/02 01:00:13;;;;;;;7.32;3.58;;;13.90;78.00;;;;;;5077188;28;20025;-75
2022/01/02 01:02:50;;;;;;;6.70;3.00;;;13.90;78.10;;;;;;5076970;28;20450;-75
2022/01/02 01:05:30;;;;;;;9.60;3.50;;;13.90;78.30;;;;;;5077234;28;20115;-74
2022/01/02 01:08:06;;;;;;;8.13;3.05;;;13.90;78.40;;;;;;5074795;28;20061;-76
2022/01/02 01:10:38;;;;;;;8.75;3.05;;;13.90;78.50;;;;;;5076351;28;20365;-75
2022/01/02 01:13:05;;;;;;;9.65;3.65;;;13.80;78.50;;;;;;5060266;28;20024;-75
2022/01/02 01:15:33;;;;;;;7.07;3.05;;;13.90;78.70;;;;;;5076995;28;20021;-75
2022/01/02 01:18:01;;;;;;;6.75;3.13;;;13.90;78.80;;;;;;5077813;28;20020;-75
2022/01/02 01:20:32;;;;;;;7.40;3.78;;;13.80;78.90;;;;;;5077612;28;20056;-75
2022/01/02 01:22:58;;;;;;;6.82;3.03;;;13.80;79.10;;;;;;5077868;28;20040;-75
2022/01/02 01:25:24;;;;;;;8.05;3.72;;;13.80;79.10;;;;;;5080509;28;20047;-75
2022/01/02 01:27:52;;;;;;;9.32;3.97;;;13.80;79.20;;;;;;5084565;28;20031;-75
2022/01/02 01:30:20;;;;;;;9.02;3.47;;;13.80;79.30;;;;;;5076379;28;20020;-74
2022/01/02 01:32:46;;;;;;;7.60;3.33;;;13.80;79.50;;;;;;5076668;28;20457;-75
2022/01/02 01:35:13;;;;;;;8.90;3.50;;;13.70;79.50;;;;;;5076904;28;20052;-74
2022/01/02 01:37:39;;;;;;;9.40;3.35;;;13.80;79.70;;;;;;5059555;28;20036;-74
2022/01/02 01:40:08;;;;;;;8.20;3.13;;;13.80;79.80;;;;;;5076432;28;20059;-74
2022/01/02 01:42:41;;;;;;;9.45;3.42;;;13.70;79.90;;;;;;5059920;28;20104;-74
2022/01/02 01:47:53;;;;;;;8.57;3.60;;;13.70;80.20;;;;;;5075750;28;20403;-75
2022/01/02 01:50:22;;;;;;;8.98;3.35;;;13.70;80.30;;;;;;5076063;28;20021;-75
2022/01/02 01:52:48;;;;;;;8.90;3.95;;;13.70;80.40;;;;;;5076063;28;20353;-75
2022/01/02 01:55:16;;;;;;;9.93;4.10;;;13.70;80.50;;;;;;5076273;28;20021;-75
2022/01/02 01:57:45;;;;;;;9.07;3.63;;;13.70;80.70;;;;;;5075597;28;20075;-75
2022/01/02 02:00:16;;;;;;;8.38;3.97;;;13.60;80.70;;;;;;5058811;28;20016;-75
2022/01/02 02:02:48;;;;;;;9.07;3.90;;;13.70;80.90;;;;;;5075916;28;20025;-76
2022/01/02 02:05:16;;;;;;;10.00;4.10;;;13.60;80.90;;;;;;5076114;28;20021;-75
2022/01/02 02:07:48;;;;;;;9.02;3.25;;;13.70;81.00;;;;;;5076491;28;20241;-75
2022/01/02 02:10:26;;;;;;;9.13;3.75;;;13.70;81.10;;;;;;5076035;28;20035;-75
2022/01/02 02:12:58;;;;;;;10.60;3.95;;;13.70;81.30;;;;;;5050004;28;20515;-75
2022/01/02 02:15:26;;;;;;;7.47;3.15;;;13.70;81.30;;;;;;5075813;28;20039;-75
2022/01/02 02:17:52;;;;;;;9.13;4.00;;;13.60;81.30;;;;;;5076021;28;20036;-76
2022/01/02 02:20:21;;;;;;;7.93;3.05;;;13.60;81.40;;;;;;5055671;28;20025;-75
2022/01/02 02:22:50;;;;;;;8.77;3.40;;;13.60;81.50;;;;;;5059123;28;20032;-76
2022/01/02 02:25:18;;;;;;;7.95;3.35;;;13.70;81.60;;;;;;5056703;28;20047;-75
2022/01/02 02:28:06;;;;;;;7.40;2.88;;;13.70;81.60;;;;;;5056740;28;20116;-75
2022/01/02 02:30:35;;;;;;;10.80;3.47;;;13.70;81.60;;;;;;5084655;28;20027;-77
2022/01/02 02:33:03;;;;;;;12.75;3.78;;;13.70;81.70;;;;;;5064163;28;20040;-77
2022/01/02 02:35:30;;;;;;;9.40;3.42;;;13.70;81.80;;;;;;5076331;28;20029;-75
2022/01/02 02:37:57;;;;;;;9.13;3.25;;;13.70;81.80;;;;;;5074862;28;20090;-75
2022/01/02 02:40:27;;;;;;;11.32;3.67;;;13.70;81.80;;;;;;5075327;28;20081;-75
2022/01/02 02:42:59;;;;;;;11.57;3.67;;;13.70;81.90;;;;;;5044541;28;20024;-76
2022/01/02 02:51:21;;;;;;;6.75;2.88;;;13.70;81.90;;;;;;5075034;28;20031;-75
2022/01/02 02:53:50;;;;;;;8.50;3.00;;;13.70;81.90;;;;;;5074992;28;20330;-75
2022/01/02 02:56:21;;;;;;;8.70;3.40;;;13.70;82.00;;;;;;5075451;28;20449;-75
2022/01/02 02:58:52;;;;;;;8.80;2.80;;;13.70;82.00;;;;;;5058563;28;20028;-75
2022/01/02 03:01:22;;;;;;;9.77;3.28;;;13.80;82.00;;;;;;5050758;28;20029;-75
2022/01/02 03:03:50;;;;;;;7.90;3.03;;;13.80;82.00;;;;;;5074904;28;20115;-76
2022/01/02 03:06:17;;;;;;;10.68;2.75;;;13.80;82.00;;;;;;5058262;28;20120;-75
2022/01/02 03:08:45;;;;;;;10.63;3.25;;;13.90;82.10;;;;;;5074556;28;20115;-75
2022/01/02 03:11:16;;;;;;;9.20;3.35;;;13.90;82.00;;;;;;5055128;28;20055;-75
2022/01/02 03:13:43;;;;;;;7.78;2.92;;;13.90;82.00;;;;;;5069674;28;20119;-75
2022/01/02 03:16:09;;;;;;;11.30;3.78;;;13.90;81.90;;;;;;5075245;28;20412;-75
2022/01/02 03:18:35;;;;;;;10.57;3.03;;;13.90;81.90;;;;;;5057709;28;20031;-75
2022/01/02 03:21:02;;;;;;;6.18;2.58;;;13.90;82.00;;;;;;5074571;28;20028;-75
2022/01/02 03:23:32;;;;;;;9.00;2.95;;;13.90;82.00;;;;;;5074338;28;20135;-76
2022/01/02 03:25:58;;;;;;;10.02;3.20;;;14.00;82.00;;;;;;5075715;28;20369;-75
2022/01/02 03:28:24;;;;;;;7.60;2.60;;;13.90;82.00;;;;;;5057553;28;20036;-75
2022/01/02 03:30:50;;;;;;;8.27;2.83;;;14.00;82.00;;;;;;5056390;28;20017;-75
2022/01/02 03:33:16;;;;;;;9.35;2.78;;;14.00;82.00;;;;;;5057423;28;20047;-76
2022/01/02 03:35:42;;;;;;;8.10;2.75;;;14.00;82.00;;;;;;5057813;28;20024;-75
2022/01/02 03:38:09;;;;;;;9.80;2.97;;;14.00;81.90;;;;;;5074445;28;20040;-75
2022/01/02 03:40:35;;;;;;;9.40;2.70;;;14.00;82.00;;;;;;5054410;28;20408;-75
2022/01/02 03:43:02;;;;;;;8.07;2.72;;;14.00;82.00;;;;;;5075366;28;20019;-74
2022/01/02 03:45:28;;;;;;;7.93;2.47;;;14.00;82.00;;;;;;5094044;28;20060;-75
2022/01/02 03:47:54;;;;;;;9.13;2.78;;;14.00;82.00;;;;;;5074203;28;20060;-76
2022/01/02 03:50:20;;;;;;;7.70;2.38;;;14.00;81.90;;;;;;5073819;28;20047;-75
2022/01/02 03:52:46;;;;;;;8.32;2.70;;;14.00;81.90;;;;;;5057235;28;20517;-75
2022/01/02 03:55:12;;;;;;;11.43;2.67;;;14.00;81.80;;;;;;5057366;28;20036;-75
2022/01/02 03:57:38;;;;;;;7.25;2.67;;;14.10;81.80;;;;;;5057373;28;20028;-74
2022/01/02 04:00:12;;;;;;;8.00;2.65;;;14.10;81.70;;;;;;5057398;28;20025;-75
2022/01/02 04:02:43;;;;;;;7.85;2.60;;;14.10;81.70;;;;;;5070530;28;20051;-75
2022/01/02 04:05:12;;;;;;;8.20;2.60;;;14.10;81.70;;;;;;5073393;28;20063;-74
2022/01/02 04:07:40;;;;;;;8.93;3.00;;;14.10;81.70;;;;;;5053793;28;20071;-75
2022/01/02 04:10:09;;;;;;;9.00;2.63;;;14.10;81.80;;;;;;5050375;28;20025;-75
2022/01/02 04:12:36;;;;;;;5.60;2.25;;;14.10;81.70;;;;;;5069464;28;20365;-74
2022/01/02 04:15:04;;;;;;;7.28;2.63;;;14.10;81.70;;;;;;5074662;28;20020;-74
2022/01/02 04:17:32;;;;;;;9.05;2.40;;;14.10;81.70;;;;;;5073296;28;20020;-76
2022/01/02 04:19:59;;;;;;;10.35;2.65;;;14.10;82.40;;;;;;5053083;28;20024;-75
2022/01/02 04:22:25;;;;;;;7.82;2.28;;;14.10;81.80;;;;;;5047524;28;20049;-75
2022/01/02 04:24:51;;;;;;;7.45;2.78;;;14.10;81.80;;;;;;5056771;28;20115;-75
2022/01/02 04:27:19;;;;;;;7.53;2.72;;;14.10;81.80;;;;;;5073486;28;20025;-75
2022/01/02 04:29:45;;;;;;;6.30;2.58;;;14.10;81.80;;;;;;5056852;28;20028;-75
2022/01/02 04:32:12;;;;;;;5.25;1.90;;;14.10;81.70;;;;;;5053370;28;20094;-75
2022/01/02 04:34:37;;;;;;;6.20;2.33;;;14.10;81.70;;;;;;5072833;28;20029;-75
2022/01/02 04:37:04;;;;;;;7.63;2.60;;;14.10;81.70;;;;;;5056527;28;20495;-75
2022/01/02 04:39:31;;;;;;;10.00;3.00;;;14.10;81.70;;;;;;5066628;28;20048;-74
2022/01/02 04:41:57;;;;;;;9.23;2.75;;;14.10;81.70;;;;;;5056817;28;20111;-75
2022/01/02 04:44:23;;;;;;;6.93;2.50;;;14.10;81.80;;;;;;5073610;28;20028;-74
2022/01/02 04:46:49;;;;;;;10.50;2.70;;;14.10;81.80;;;;;;5055994;28;20082;-74
2022/01/02 04:49:15;;;;;;;7.82;2.53;;;14.10;81.90;;;;;;5056862;28;20115;-74
2022/01/02 04:51:41;;;;;;;8.10;2.40;;;14.10;82.00;;;;;;5056412;28;20111;-74
2022/01/02 04:54:07;;;;;;;9.70;3.50;;;14.10;81.90;;;;;;5073447;28;20024;-74
2022/01/02 04:56:33;;;;;;;8.40;3.38;;;14.10;82.00;;;;;;5072871;28;20013;-75
2022/01/02 04:58:58;;;;;;;14.43;3.70;;;14.10;82.20;;;;;;5050117;28;20085;-75
2022/01/02 05:01:24;;;;;;;11.27;3.65;;;14.00;82.20;;;;;;5072883;28;20043;-74
2022/01/02 05:03:50;;;;;;;6.80;2.95;;;14.00;82.30;;;;;;5073022;28;20029;-75
2022/01/02 05:06:16;;;;;;;7.97;2.92;;;14.00;82.30;;;;;;5056650;28;20081;-74
2022/01/02 05:08:44;;;;;;;7.03;3.10;;;14.00;82.40;;;;;;5053451;28;20045;-74
2022/01/02 05:11:10;;;;;;;14.13;3.55;;;14.00;82.50;;;;;;5071639;28;20355;-74
2022/01/02 05:13:36;;;;;;;8.05;2.65;;;13.90;82.50;;;;;;5073434;28;20040;-75
2022/01/02 05:16:02;;;;;;;7.47;3.38;;;13.90;82.50;;;;;;5055506;28;20036;-74
2022/01/02 05:18:27;;;;;;;9.38;2.65;;;13.90;82.50;;;;;;5073330;28;20047;-73
2022/01/02 05:20:53;;;;;;;6.50;2.88;;;13.90;82.60;;;;;;5072949;28;20449;-74
2022/01/02 05:23:21;;;;;;;8.57;2.97;;;13.90;82.70;;;;;;5075012;28;20025;-74
2022/01/02 05:25:47;;;;;;;9.57;3.47;;;13.90;82.70;;;;;;5084699;28;20032;-72
2022/01/02 05:28:14;;;;;;;8.45;3.08;;;13.90;82.70;;;;;;5092511;28;20033;-74
2022/01/02 05:30:40;;;;;;;10.30;3.53;;;13.90;82.80;;;;;;5058768;28;20067;-74
2022/01/02 05:33:07;;;;;;;8.10;2.95;;;13.90;82.90;;;;;;5077896;28;20044;-75
2022/01/02 05:35:33;;;;;;;9.05;3.05;;;13.80;82.80;;;;;;5059135;28;20024;-75
2022/01/02 05:38:01;;;;;;;9.45;3.03;;;13.80;82.90;;;;;;5060158;28;20044;-75
2022/01/02 05:40:33;;;;;;;11.73;3.05;;;13.80;83.00;;;;;;5059273;28;20040;-75
2022/01/02 05:43:00;;;;;;;6.32;2.53;;;13.80;83.40;;;;;;5055528;28;20024;-75
2022/01/02 05:45:26;;;;;;;7.40;3.13;;;13.80;83.10;;;;;;5058949;28;20035;-75
2022/01/02 05:47:51;;;;;;;7.05;3.10;;;13.80;83.80;;;;;;5055373;28;20033;-75
2022/01/02 05:50:17;;;;;;;9.10;2.95;;;13.80;83.20;;;;;;5064054;28;20039;-74
2022/01/02 05:52:43;;;;;;;8.10;3.13;;;13.70;83.10;;;;;;5077734;28;20112;-75
2022/01/02 05:55:09;;;;;;;8.48;3.00;;;13.80;83.20;;;;;;5056831;28;20021;-76
2022/01/02 05:57:35;;;;;;;6.25;2.60;;;13.70;83.20;;;;;;5059928;28;20079;-76
2022/01/02 06:00:06;;;;;;;9.10;2.92;;;13.80;83.30;;;;;;5085695;28;20036;-76
2022/01/02 06:02:39;;;;;;;10.63;2.67;;;13.70;83.20;;;;;;5076814;28;20044;-76
2022/01/02 06:05:07;;;;;;;10.52;3.28;;;13.80;83.30;;;;;;5076419;28;20149;-76
2022/01/02 06:07:34;;;;;;;8.02;3.28;;;13.70;83.30;;;;;;5056858;28;20020;-76
2022/01/02 06:10:04;;;;;;;8.60;3.05;;;13.70;83.30;;;;;;5057732;28;20029;-76
2022/01/02 06:12:31;;;;;;;6.37;2.93;;;13.70;83.30;;;;;;5076456;28;20026;-76
2022/01/02 06:14:57;;;;;;;7.28;3.05;;;13.70;83.40;;;;;;5058972;28;20739;-76
2022/01/02 06:17:23;;;;;;;7.47;2.85;;;13.70;83.40;;;;;;5075402;28;20032;-75
2022/01/02 06:19:49;;;;;;;10.18;2.45;;;13.70;83.40;;;;;;5074824;28;20025;-75
2022/01/02 06:22:15;;;;;;;8.70;3.30;;;13.60;83.30;;;;;;5074938;28;20035;-75
2022/01/02 06:24:41;;;;;;;8.40;3.50;;;13.60;83.30;;;;;;5075364;28;20094;-75
2022/01/02 06:27:07;;;;;;;9.00;3.00;;;13.60;83.30;;;;;;5075360;28;20024;-75
2022/01/02 06:29:33;;;;;;;6.18;2.80;;;13.60;83.40;;;;;;5058993;28;20035;-76
2022/01/02 06:32:00;;;;;;;8.63;3.30;;;13.60;83.40;;;;;;5075192;28;20025;-75
2022/01/02 06:34:26;;;;;;;7.18;2.47;;;13.60;83.30;;;;;;5075595;28;20024;-75
2022/01/02 06:36:53;;;;;;;7.82;2.85;;;13.60;83.30;;;;;;5075406;28;20126;-76
2022/01/02 06:39:18;;;;;;;8.00;3.10;;;13.60;83.30;;;;;;5059241;28;20158;-76
2022/01/02 06:41:45;;;;;;;8.10;3.45;;;13.60;83.30;;;;;;5065159;28;20044;-75
2022/01/02 06:44:11;;;;;;;9.80;3.13;;;13.60;83.30;;;;;;5055115;28;20025;-75
2022/01/02 06:46:38;;;;;;;7.30;2.97;;;13.60;83.20;;;;;;5055902;28;20051;-76
2022/01/02 06:49:03;;;;;;;8.80;2.65;;;13.60;83.20;;;;;;5055700;28;20071;-75
2022/01/02 06:51:29;;;;;;;10.55;3.35;;;13.60;83.10;;;;;;5056588;28;20032;-76
2022/01/02 06:53:55;;;;;;;8.52;2.92;;;13.60;83.10;;;;;;5065256;28;20158;-76
2022/01/02 06:56:20;;;;;;;6.30;2.60;;;13.60;83.10;;;;;;5075371;28;20524;-76
2022/01/02 06:58:46;;;;;;;7.57;3.05;;;13.60;83.10;;;;;;5075453;28;20024;-75
2022/01/02 07:01:12;;;;;;;7.72;3.30;;;13.60;83.10;;;;;;5075277;28;20098;-76
2022/01/02 07:03:37;;;;;;;7.40;2.92;;;13.60;83.10;;;;;;5058771;28;20048;-77
2022/01/02 07:06:04;;;;;;;13.32;3.38;;;13.60;82.90;;;;;;5074912;28;20031;-74
2022/01/02 07:08:30;;;;;;;6.60;2.72;;;13.70;82.80;;;;;;5065141;28;20044;-73
2022/01/02 07:10:56;;;;;;;9.95;2.78;;;13.70;82.60;;;;;;5053826;28;20343;-72
2022/01/02 07:13:22;;;;;;;8.48;2.70;;;13.70;83.10;;;;;;5074478;28;20035;-72
2022/01/02 07:15:48;;;;;;;8.18;2.78;;;13.70;82.30;;;;;;5057419;28;20028;-73
2022/01/02 07:18:14;;;;;;;5.57;2.20;;;13.80;82.20;;;;;;5073876;28;20028;-71
2022/01/02 07:20:40;;;;;;;7.97;2.72;;;13.80;82.20;;;;;;5074234;28;20028;-74
2022/01/02 07:23:05;;;;;;;5.97;2.38;;;13.80;82.10;;;;;;5075095;28;20481;-70
2022/01/02 07:25:31;;;;;;;11.15;2.95;;;13.80;82.00;;;;;;5075423;28;20028;-73
2022/01/02 07:27:57;;;;;;;7.20;2.75;;;13.80;81.90;;;;;;5075016;28;20438;-74
2022/01/02 07:30:22;;;;;;;7.07;2.88;;;13.80;81.90;;;;;;5074767;28;20074;-72
2022/01/02 07:32:48;;;;;;;6.63;2.60;;;13.80;81.90;;;;;;5074090;28;20053;-73
2022/01/02 07:35:14;;;;;;;7.45;2.75;;;13.80;81.90;;;;;;5073168;28;20043;-73
2022/01/02 07:37:39;;;;;;;7.47;2.92;;;13.70;81.80;;;;;;5073743;28;20066;-73
2022/01/02 07:40:06;;;;;;;6.57;2.70;;;13.70;81.80;;;;;;5074202;28;20031;-73
2022/01/02 07:42:32;;;;;;;6.88;2.83;;;13.70;81.70;;;;;;5073377;28;20029;-72
2022/01/02 07:45:05;;;;;;;7.82;2.40;;;13.70;81.60;;;;;;5055688;28;20031;-74
2022/01/02 07:47:31;;;;;;;8.27;2.85;;;13.70;81.50;;;;;;5074427;28;20103;-72
2022/01/02 07:49:56;;;;;;;6.75;2.35;;;13.70;81.50;;;;;;5075051;28;20459;-73
2022/01/02 07:52:23;;;;;;;7.47;2.63;;;13.70;81.50;;;;;;5073573;28;20109;-73
2022/01/02 07:54:48;;;;;;;7.95;2.88;;;13.70;81.60;;;;;;5072636;28;20030;-73
2022/01/02 07:57:14;;;;;;;9.77;3.42;;;13.70;81.50;;;;;;5073223;28;20408;-74
2022/01/02 07:59:40;;;;;;;7.40;2.95;;;13.70;81.60;;;;;;5057242;28;20028;-74
2022/01/02 08:02:08;;;;;;;6.82;2.72;;;13.60;81.60;;;;;;5073655;28;20067;-74
2022/01/02 08:04:34;;;;;;;6.35;2.70;;;13.70;81.60;;;;;;5075058;28;20032;-73
2022/01/02 08:06:59;;;;;;;8.68;2.75;;;13.60;81.60;;;;;;5074372;28;20115;-74
2022/01/02 08:09:25;;;;;;;7.20;3.13;;;13.60;81.60;;;;;;5057322;28;20060;-74
2022/01/02 08:11:50;;;;;;;9.13;3.10;;;13.60;81.60;;;;;;5073088;28;20115;-75
2022/01/02 08:14:16;;;;;;;7.30;2.78;;;13.60;81.60;;;;;;5076842;28;20029;-74
2022/01/02 08:16:42;;;;;;;5.93;2.40;;;13.60;81.60;;;;;;5083166;28;20032;-77
2022/01/02 08:19:08;;;;;;;6.97;3.80;;;13.60;81.70;;;;;;5068991;28;20035;-76
2022/01/02 08:21:34;;;;;;;7.35;3.13;;;13.60;81.70;;;;;;5055029;28;20111;-75
2022/01/02 08:24:00;;;;;;;7.53;2.85;;;13.60;81.70;;;;;;5073414;28;20117;-75
2022/01/02 08:26:25;;;;;;;7.45;3.50;;;13.60;81.70;;;;;;5079739;28;20037;-73
2022/01/02 08:28:52;;;;;;;9.98;3.25;;;13.60;81.70;;;;;;5090294;28;20025;-74
2022/01/02 08:31:18;;;;;;;8.13;2.85;;;13.50;81.60;;;;;;5080945;28;20024;-74
2022/01/02 08:33:44;;;;;;;6.70;3.00;;;13.50;81.50;;;;;;5074666;28;20067;-73
2022/01/02 08:36:09;;;;;;;8.43;3.20;;;13.50;81.50;;;;;;5072653;28;20107;-74
2022/01/02 08:38:35;;;;;;;8.35;3.10;;;13.50;81.50;;;;;;5074463;28;20021;-76
2022/01/02 08:41:01;;;;;;;7.72;3.35;;;13.50;81.50;;;;;;5056020;28;20035;-73
2022/01/02 08:43:26;;;;;;;7.88;2.85;;;13.60;81.40;;;;;;5071039;28;20037;-75
2022/01/02 08:45:52;;;;;;;8.82;2.90;;;13.50;81.30;;;;;;5073936;28;20107;-75
2022/01/02 08:48:18;;;;;;;8.20;2.80;;;13.60;81.20;;;;;;5055798;28;20383;-74
2022/01/02 08:50:43;;;;;;;6.97;2.75;;;13.60;81.20;;;;;;5055872;28;20044;-76
2022/01/02 08:53:09;;;;;;;6.97;3.00;;;13.60;81.10;;;;;;5073246;28;20032;-75
2022/01/02 08:55:35;;;;;;;4.95;2.00;;;13.60;81.10;;;;;;5073152;28;20055;-75
2022/01/02 08:58:01;;;;;;;7.28;2.60;;;13.60;81.00;;;;;;5056145;28;20033;-75
2022/01/02 09:00:27;;;;;;;6.97;3.03;;;13.60;81.00;;;;;;5074107;28;20341;-74
2022/01/02 09:02:53;;;;;;;6.43;2.67;;;13.60;80.90;;;;;;5074571;28;20025;-75
2022/01/02 09:05:19;;;;;;;7.95;2.97;;;13.60;80.90;;;;;;5057512;28;20021;-75
2022/01/02 09:07:45;;;;;;;10.35;2.95;;;13.60;80.80;;;;;;5078278;28;20048;-76
2022/01/02 09:10:11;;;;;;;5.97;2.63;;;13.60;80.70;;;;;;5077437;28;20115;-75
2022/01/02 09:12:37;;;;;;;6.40;2.90;;;13.70;80.60;;;;;;5077495;28;20059;-75
2022/01/02 09:15:04;;;;;;;6.00;2.22;;;13.70;80.50;;;;;;5077055;28;20044;-75
2022/01/02 09:17:30;;;;;;;6.57;2.75;;;13.70;80.30;;;;;;5077680;28;20400;-72
2022/01/02 09:19:57;;;;;;;6.57;2.80;;;13.70;80.30;;;;;;5077523;28;20020;-75
2022/01/02 09:22:23;;;;;;;6.20;2.22;;;13.70;80.10;;;;;;5077306;28;20369;-76
2022/01/02 09:24:52;;;;;;;11.90;2.85;;;13.70;80.10;;;;;;5077982;28;20028;-73
2022/01/02 09:27:17;;;;;;;7.40;3.03;;;13.70;80.00;;;;;;5077626;28;20060;-73
2022/01/02 09:29:43;;;;;;;7.13;3.05;;;13.70;79.90;;;;;;5076447;28;20408;-73
2022/01/02 09:32:09;;;;;;;5.32;2.40;;;13.70;79.70;;;;;;5076042;28;20020;-73
2022/01/02 09:34:34;;;;;;;7.40;2.72;;;13.70;79.60;;;;;;5075668;28;20070;-74
2022/01/02 09:37:01;;;;;;;10.43;3.25;;;13.80;79.50;;;;;;5078231;28;20036;-73
2022/01/02 09:39:26;;;;;;;7.57;2.80;;;13.80;79.30;;;;;;5076259;28;20035;-74
2022/01/02 09:41:53;;;;;;;6.78;3.35;;;13.80;79.20;;;;;;5076934;28;20036;-74
2022/01/02 09:44:19;;;;;;;7.07;2.35;;;13.90;79.10;;;;;;5076252;28;20119;-74
2022/01/02 09:46:45;;;;;;;6.55;3.13;;;13.90;78.80;;;;;;5056379;28;20078;-76
2022/01/02 09:49:12;;;;;;;7.97;2.85;;;13.90;79.40;;;;;;5059235;28;20037;-76
2022/01/02 09:51:38;;;;;;;6.00;2.97;;;13.90;78.70;;;;;;5076617;28;20032;-75
2022/01/02 09:54:04;;;;;;;6.15;3.05;;;13.90;78.70;;;;;;5075918;28;20016;-76
2022/01/02 09:56:29;;;;;;;7.43;3.45;;;13.90;78.60;;;;;;5055553;28;20059;-76
2022/01/02 09:58:55;;;;;;;6.30;2.72;;;13.90;78.60;;;;;;5069854;28;20056;-76
2022/01/02 10:01:23;;;;;;;7.80;3.40;;;13.90;78.60;;;;;;5058769;28;20032;-76
2022/01/02 10:03:54;;;;;;;7.13;2.88;;;13.90;78.60;;;;;;5077440;28;20020;-76
2022/01/02 10:06:21;;;;;;;;;;;13.90;78.50;;;;;;5060122;28;20126;-77
2022/01/02 10:08:47;;;;;;;7.47;2.72;;;13.90;78.60;;;;;;5059693;28;19955;-77
2022/01/02 10:11:19;;;;;;;6.47;2.63;;;13.80;78.60;;;;;;5076435;28;20067;-77
2022/01/02 10:13:50;;;;;;;7.82;3.17;;;13.90;78.60;;;;;;5059511;28;20124;-77
2022/01/02 10:16:21;;;;;;;6.95;2.97;;;13.90;78.50;;;;;;5076331;28;20033;-77
2022/01/02 10:18:52;;;;;;;7.72;3.40;;;14.10;78.40;;;;;;5075324;28;20032;-77
2022/01/02 10:21:34;;;;;;;6.65;2.97;;;14.30;77.90;;;;;;5077266;28;20036;-77
2022/01/02 10:24:14;;;;;;;5.60;2.70;;;14.60;77.20;;;;;;5075846;28;20064;-77
2022/01/02 10:27:01;;;;;;;6.57;3.28;;;14.80;76.60;;;;;;5077673;28;20035;-77
2022/01/02 10:29:26;;;;;;;8.43;3.40;;;14.90;76.40;;;;;;5082897;28;20046;-77
2022/01/02 10:31:52;;;;;;;7.28;3.22;;;14.80;76.50;;;;;;5083794;28;20108;-77
2022/01/02 10:34:30;;;;;;;11.05;4.13;;;14.70;76.70;;;;;;5078277;28;20047;-77
2022/01/02 10:36:56;;;;;;;8.18;3.67;;;14.60;76.80;;;;;;5077475;28;20024;-77
2022/01/02 10:39:22;;;;;;;7.95;3.78;;;14.60;77.00;;;;;;5076316;28;20349;-77
2022/01/02 10:41:50;;;;;;;8.18;4.05;;;14.50;77.00;;;;;;5075912;28;20036;-77
2022/01/02 10:44:30;;;;;;;8.00;3.55;;;14.50;77.10;;;;;;5076519;28;20026;-77
2022/01/02 10:47:16;;;;;;;9.38;3.75;;;14.50;77.20;;;;;;5076059;28;20040;-77
2022/01/02 10:50:04;;;;;;;8.23;3.97;;;14.40;77.20;;;;;;5075956;28;20123;-74
2022/01/02 10:52:37;;;;;;;8.48;3.65;;;14.40;77.20;;;;;;5072460;28;20043;-75
2022/01/02 10:55:12;;;;;;;7.95;3.78;;;14.40;77.30;;;;;;5058406;28;20145;-74
2022/01/02 10:57:39;;;;;;;9.52;3.55;;;14.40;77.20;;;;;;5055285;28;20032;-75
2022/01/02 11:00:06;;;;;;;9.20;3.88;;;14.40;77.20;;;;;;5075195;28;20043;-74
2022/01/02 11:02:32;;;;;;;7.88;3.85;;;14.40;77.30;;;;;;5074630;28;20037;-75
2022/01/02 11:05:07;;;;;;;10.05;4.22;;;14.30;77.30;;;;;;5074356;28;20123;-75
2022/01/02 11:07:45;;;;;;;8.10;3.85;;;14.30;77.30;;;;;;5075213;28;20029;-73
2022/01/02 11:10:16;;;;;;;8.73;3.55;;;14.30;78.00;;;;;;5068152;28;20021;-73
2022/01/02 11:12:43;;;;;;;7.57;3.70;;;14.20;77.50;;;;;;5055294;28;20029;-74
2022/01/02 11:15:21;;;;;;;8.50;3.75;;;14.20;77.60;;;;;;5053703;28;20089;-75
2022/01/02 11:17:47;;;;;;;8.30;4.07;;;14.20;77.60;;;;;;5074815;28;20043;-73
2022/01/02 11:20:15;;;;;;;9.07;4.05;;;14.20;77.70;;;;;;5074348;28;20032;-74
2022/01/02 11:22:59;;;;;;;9.48;3.55;;;14.20;77.70;;;;;;5057741;28;20037;-73
2022/01/02 11:25:46;;;;;;;6.85;3.45;;;14.20;77.70;;;;;;5073027;28;20108;-71
2022/01/02 11:28:40;;;;;;;9.50;3.72;;;14.20;77.70;;;;;;5055980;28;21995;-70
2022/01/02 11:31:09;;;;;;;9.95;3.60;;;14.20;77.70;;;;;;5064402;28;20031;-72
2022/01/02 11:33:40;;;;;;;8.30;3.28;;;14.10;77.80;;;;;;5073152;28;20046;-71
2022/01/02 11:36:22;;;;;;;8.07;3.72;;;14.10;77.80;;;;;;5073397;28;20056;-72
2022/01/02 11:39:05;;;;;;;6.60;3.17;;;14.10;77.80;;;;;;5073409;28;20050;-73
2022/01/02 11:41:43;;;;;;;7.22;3.25;;;14.10;77.90;;;;;;5056731;28;20543;-72
2022/01/02 11:44:17;;;;;;;8.88;4.15;;;14.10;78.00;;;;;;5073741;28;20032;-73
2022/01/02 11:46:51;;;;;;;12.85;3.95;;;14.10;78.00;;;;;;5074442;28;20107;-74
2022/01/02 11:49:23;;;;;;;8.43;3.25;;;14.10;78.00;;;;;;5081697;28;20032;-75
2022/01/02 11:51:51;;;;;;;8.23;3.95;;;14.10;78.10;;;;;;5089599;28;20028;-75
2022/01/02 11:54:32;;;;;;;10.10;3.13;;;14.10;78.10;;;;;;5086891;28;20017;-75
2022/01/02 11:57:03;;;;;;;9.50;3.03;;;14.10;78.10;;;;;;5078625;28;20043;-75
2022/01/02 11:59:38;;;;;;;9.90;3.17;;;14.10;78.10;;;;;;5054205;28;20025;-75
2022/01/02 12:02:30;;;;;;;8.32;2.97;;;14.10;78.10;;;;;;5074149;28;20040;-75
2022/01/02 12:04:59;;;;;;;7.80;3.38;;;14.20;78.20;;;;;;5063084;28;20036;-75
2022/01/02 12:07:33;;;;;;;11.60;3.40;;;14.10;78.10;;;;;;5074904;28;20449;-76
2022/01/02 12:10:17;;;;;;;10.40;3.45;;;14.20;78.10;;;;;;5057842;28;20086;-72
2022/01/02 12:13:13;;;;;;;7.65;2.85;;;14.20;78.10;;;;;;5074353;28;20086;-77
2022/01/02 12:15:38;;;;;;;7.40;2.78;;;14.20;78.10;;;;;;5074307;28;20032;-74
2022/01/02 12:18:06;;;;;;;5.25;2.35;;;14.20;78.20;;;;;;5071481;28;20120;-73
2022/01/02 12:20:50;;;;;;;7.90;3.05;;;14.20;78.20;;;;;;5071647;28;20031;-75
2022/01/02 12:23:33;;;;;;;7.72;2.78;;;14.20;78.30;;;;;;5054280;28;20567;-73
2022/01/02 12:26:06;;;;;;;8.52;2.80;;;14.20;78.30;;;;;;5068021;28;20468;-73
2022/01/02 12:28:38;;;;;;;8.73;2.83;;;14.20;78.30;;;;;;5066357;28;20460;-73
2022/01/02 12:31:04;;;;;;;;;;;14.20;78.30;;;;;;5055489;28;20028;-73
2022/01/02 12:33:30;;;;;;;9.85;3.13;;;14.20;78.30;;;;;;5073427;28;19916;-73
2022/01/02 12:35:57;;;;;;;8.45;3.03;;;14.20;78.40;;;;;;5073527;28;20032;-73
2022/01/02 12:38:23;;;;;;;8.98;3.00;;;14.20;78.30;;;;;;5071843;28;20401;-72
2022/01/02 12:40:53;;;;;;;11.25;3.72;;;14.20;78.30;;;;;;5054066;28;20123;-71
2022/01/02 12:43:25;;;;;;;7.78;3.15;;;14.20;78.30;;;;;;5075562;28;20036;-70
2022/01/02 12:45:55;;;;;;;13.02;3.00;;;14.20;78.30;;;;;;5077266;28;20036;-78
2022/01/02 12:48:33;;;;;;;8.88;3.55;;;14.20;78.30;;;;;;5074601;28;20048;-80
2022/01/02 12:51:11;;;;;;;10.85;3.00;;;14.20;78.30;;;;;;5074160;28;20036;-74
2022/01/02 12:53:38;;;;;;;9.90;3.20;;;14.30;78.30;;;;;;5073797;28;20032;-76
2022/01/02 12:56:04;;;;;;;8.43;3.00;;;14.30;78.30;;;;;;5074885;28;20098;-78
2022/01/02 12:58:31;;;;;;;10.98;3.20;;;14.30;78.20;;;;;;5075074;28;20024;-78
2022/01/02 13:01:04;;;;;;;8.60;2.80;;;14.30;78.30;;;;;;5073652;28;20075;-78
2022/01/02 13:03:30;;;;;;;10.07;3.25;;;14.30;78.20;;;;;;5073411;28;20047;-73